SHT22A EGLL-EGJB
Flight info
| Callsign | SHT22A |
|---|---|
| Flight time | N/A |
| Altitude | 23000 |
| Route | GASGU N514 EVTES N621 SAM/N0391F220 N63 LELNA |
| Aircraft | A319/M-SDE3FGIJ1KRWXY/LB1 |
Departure
| Time | 2026-05-06 20:06 |
|---|---|
| Airport | London Heathrow Airport (EGLL) |
Arrival
| Time | N/A |
|---|---|
| Airport | Guernsey Airport (EGJB) |
| Time | Latitude | Longitude | Altitude | Speed | Heading |
|---|---|---|---|---|---|
| 2026-05-06 19:35 | 51.47399 | -0.48589 | 88 ft | 0 kts | 270° |
| 2026-05-06 19:53 | 51.47399 | -0.48581 | 89 ft | 3 kts | 270° |
| 2026-05-06 19:53 | 51.47400 | -0.48537 | 86 ft | 4 kts | 270° |
| 2026-05-06 19:53 | 51.47400 | -0.48504 | 86 ft | 4 kts | 251° |
| 2026-05-06 19:54 | 51.47414 | -0.48476 | 90 ft | 4 kts | 190° |
| 2026-05-06 19:54 | 51.47436 | -0.48475 | 87 ft | 1 kts | 179° |
| 2026-05-06 19:54 | 51.47437 | -0.48475 | 87 ft | 0 kts | 179° |
| 2026-05-06 20:00 | 51.47425 | -0.48475 | 86 ft | 4 kts | 179° |
| 2026-05-06 20:00 | 51.47385 | -0.48474 | 86 ft | 8 kts | 179° |
| 2026-05-06 20:00 | 51.47320 | -0.48473 | 86 ft | 11 kts | 179° |
| 2026-05-06 20:00 | 51.47230 | -0.48472 | 86 ft | 15 kts | 179° |
| 2026-05-06 20:01 | 51.47115 | -0.48471 | 86 ft | 18 kts | 180° |
| 2026-05-06 20:01 | 51.46977 | -0.48470 | 90 ft | 22 kts | 180° |
| 2026-05-06 20:01 | 51.46815 | -0.48469 | 86 ft | 20 kts | 180° |
| 2026-05-06 20:01 | 51.46685 | -0.48468 | 86 ft | 17 kts | 180° |
| 2026-05-06 20:02 | 51.46591 | -0.48467 | 87 ft | 0 kts | 179° |
| 2026-05-06 20:04 | 51.46590 | -0.48467 | 87 ft | 1 kts | 179° |
| 2026-05-06 20:04 | 51.46575 | -0.48467 | 87 ft | 4 kts | 179° |
| 2026-05-06 20:04 | 51.46535 | -0.48466 | 87 ft | 7 kts | 179° |
| 2026-05-06 20:04 | 51.46485 | -0.48432 | 87 ft | 10 kts | 115° |
| 2026-05-06 20:05 | 51.46480 | -0.48265 | 89 ft | 27 kts | 89° |
| 2026-05-06 20:05 | 51.46481 | -0.47618 | 86 ft | 87 kts | 89° |
| 2026-05-06 20:05 | 51.46485 | -0.46316 | 89 ft | 142 kts | 89° |
| 2026-05-06 20:05 | 51.46497 | -0.44756 | 570 ft | 139 kts | 84° |
| 2026-05-06 20:06 | 51.46533 | -0.43164 | 1073 ft | 146 kts | 85° |
| 2026-05-06 20:06 | 51.46495 | -0.41456 | 1390 ft | 168 kts | 103° |
| 2026-05-06 20:06 | 51.45868 | -0.39733 | 1767 ft | 186 kts | 124° |
| 2026-05-06 20:06 | 51.45076 | -0.38051 | 2287 ft | 193 kts | 124° |
| 2026-05-06 20:07 | 51.44220 | -0.36186 | 2399 ft | 226 kts | 123° |
| 2026-05-06 20:07 | 51.43126 | -0.34208 | 2762 ft | 250 kts | 141° |
| 2026-05-06 20:07 | 51.41526 | -0.32955 | 3327 ft | 263 kts | 165° |
| 2026-05-06 20:07 | 51.39682 | -0.32836 | 4072 ft | 267 kts | 190° |
| 2026-05-06 20:08 | 51.37946 | -0.33914 | 4780 ft | 272 kts | 214° |
| 2026-05-06 20:08 | 51.36531 | -0.35876 | 5644 ft | 267 kts | 224° |
| 2026-05-06 20:08 | 51.35155 | -0.37939 | 5887 ft | 272 kts | 224° |
| 2026-05-06 20:08 | 51.33774 | -0.40007 | 6010 ft | 273 kts | 225° |
| 2026-05-06 20:09 | 51.32392 | -0.42089 | 6016 ft | 272 kts | 224° |
| 2026-05-06 20:09 | 51.31053 | -0.44199 | 5995 ft | 271 kts | 231° |
| 2026-05-06 20:09 | 51.30072 | -0.46749 | 5910 ft | 269 kts | 249° |
| 2026-05-06 20:09 | 51.29514 | -0.49588 | 5986 ft | 269 kts | 256° |
| 2026-05-06 20:10 | 51.29192 | -0.51505 | 6427 ft | 267 kts | 257° |
| 2026-05-06 20:10 | 51.28577 | -0.55303 | 7365 ft | 268 kts | 257° |
| 2026-05-06 20:10 | 51.28106 | -0.58181 | 8072 ft | 268 kts | 257° |
| 2026-05-06 20:10 | 51.27598 | -0.61089 | 8635 ft | 275 kts | 255° |
| 2026-05-06 20:11 | 51.27042 | -0.64011 | 9286 ft | 276 kts | 252° |
| 2026-05-06 20:11 | 51.26411 | -0.66956 | 9814 ft | 282 kts | 253° |
| 2026-05-06 20:11 | 51.25795 | -0.69929 | 10427 ft | 283 kts | 251° |
| 2026-05-06 20:11 | 51.24677 | -0.72648 | 10453 ft | 307 kts | 223° |
| 2026-05-06 20:12 | 51.22900 | -0.74635 | 10768 ft | 314 kts | 215° |
| 2026-05-06 20:12 | 51.21126 | -0.76543 | 11574 ft | 303 kts | 216° |
| 2026-05-06 20:12 | 51.19382 | -0.78437 | 12047 ft | 307 kts | 216° |
| 2026-05-06 20:12 | 51.17587 | -0.80396 | 12236 ft | 318 kts | 216° |
| 2026-05-06 20:13 | 51.16369 | -0.81734 | 12423 ft | 323 kts | 216° |
| 2026-05-06 20:13 | 51.14513 | -0.83778 | 12804 ft | 325 kts | 216° |